Map

Track Data

SID SEASON NUMBER BASIN SUBBASIN NAME ISO_TIME NATURE LAT LON WMO_WIND WMO_PRES WMO_AGENCY TRACK_TYPE DIST2LAND LANDFALL IFLAG USA_AGENCY USA_ATCF_ID USA_LAT USA_LON USA_RECORD USA_STATUS USA_WIND USA_PRES USA_SSHS USA_R34_NE USA_R34_SE USA_R34_SW USA_R34_NW USA_R50_NE USA_R50_SE USA_R50_SW USA_R50_NW USA_R64_NE USA_R64_SE USA_R64_SW USA_R64_NW USA_POCI USA_ROCI USA_RMW USA_EYE TOKYO_LAT TOKYO_LON TOKYO_GRADE TOKYO_WIND TOKYO_PRES TOKYO_R50_DIR TOKYO_R50_LONG TOKYO_R50_SHORT TOKYO_R30_DIR TOKYO_R30_LONG TOKYO_R30_SHORT TOKYO_LAND CMA_LAT CMA_LON CMA_CAT CMA_WIND CMA_PRES HKO_LAT HKO_LON HKO_CAT HKO_WIND HKO_PRES NEWDELHI_LAT NEWDELHI_LON NEWDELHI_GRADE NEWDELHI_WIND NEWDELHI_PRES NEWDELHI_CI NEWDELHI_DP NEWDELHI_POCI REUNION_LAT REUNION_LON REUNION_TYPE REUNION_WIND REUNION_PRES REUNION_TNUM REUNION_CI REUNION_RMW REUNION_R34_NE REUNION_R34_SE REUNION_R34_SW REUNION_R34_NW REUNION_R50_NE REUNION_R50_SE REUNION_R50_SW REUNION_R50_NW REUNION_R64_NE REUNION_R64_SE REUNION_R64_SW REUNION_R64_NW BOM_LAT BOM_LON BOM_TYPE BOM_WIND BOM_PRES BOM_TNUM BOM_CI BOM_RMW BOM_R34_NE BOM_R34_SE BOM_R34_SW BOM_R34_NW BOM_R50_NE BOM_R50_SE BOM_R50_SW BOM_R50_NW BOM_R64_NE BOM_R64_SE BOM_R64_SW BOM_R64_NW BOM_ROCI BOM_POCI BOM_EYE BOM_POS_METHOD BOM_PRES_METHOD NADI_LAT NADI_LON NADI_CAT NADI_WIND NADI_PRES WELLINGTON_LAT WELLINGTON_LON WELLINGTON_WIND WELLINGTON_PRES DS824_LAT DS824_LON DS824_STAGE DS824_WIND DS824_PRES TD9636_LAT TD9636_LON TD9636_STAGE TD9636_WIND TD9636_PRES TD9635_LAT TD9635_LON TD9635_WIND TD9635_PRES TD9635_ROCI NEUMANN_LAT NEUMANN_LON NEUMANN_CLASS NEUMANN_WIND NEUMANN_PRES MLC_LAT MLC_LON MLC_CLASS MLC_WIND MLC_PRES USA_GUST BOM_GUST BOM_GUST_PER REUNION_GUST REUNION_GUST_PER USA_SEAHGT USA_SEARAD_NE USA_SEARAD_SE USA_SEARAD_SW USA_SEARAD_NW STORM_SPEED STORM_DIR
1979241N11335 1979 78 NA NA FREDERIC 1979-08-29 06:00:00 TS 11.0000 -25.5000 25 1009 hurdat_atl main 960 960 O_____________ hurdat_atl AL111979 11.0000 -25.5000 TD 25 1009 -1 24 272
1979241N11335 1979 78 NA NA FREDERIC 1979-08-29 09:00:00 TS 11.0508 -26.7376 main 1075 1075 P_____________ AL111979 11.0508 -26.7376 TD 27 1009 -1 25 272
1979241N11335 1979 78 NA NA FREDERIC 1979-08-29 12:00:00 TS 11.1000 -28.0000 30 1009 hurdat_atl main 1207 1207 O_____________ hurdat_atl AL111979 11.1000 -28.0000 TD 30 1009 -1 25 272
1979241N11335 1979 78 NA NA FREDERIC 1979-08-29 15:00:00 TS 11.1499 -29.2875 main 1341 1341 P_____________ AL111979 11.1499 -29.2875 TD 30 1008 -1 25 272
1979241N11335 1979 78 NA NA FREDERIC 1979-08-29 18:00:00 TS 11.2000 -30.5000 30 1008 hurdat_atl main 1462 1462 O_____________ hurdat_atl AL111979 11.2000 -30.5000 TD 30 1008 -1 22 273
1979241N11335 1979 78 NA NA FREDERIC 1979-08-29 21:00:00 TS 11.2495 -31.5599 main 1577 1574 P_____________ AL111979 11.2495 -31.5599 TD 30 1007 -1 20 273
1979241N11335 1979 78 NA NA FREDERIC 1979-08-30 00:00:00 TS 11.3000 -32.5000 30 1007 hurdat_atl main 1669 1669 O_____________ hurdat_atl AL111979 11.3000 -32.5000 TD 30 1007 -1 18 273
1979241N11335 1979 78 NA NA FREDERIC 1979-08-30 03:00:00 TS 11.3495 -33.3650 main 1741 1718 P_____________ AL111979 11.3495 -33.3650 TD 30 1006 -1 17 273
1979241N11335 1979 78 NA NA FREDERIC 1979-08-30 06:00:00 TS 11.4000 -34.2000 30 1006 hurdat_atl main 1718 1688 O_____________ hurdat_atl AL111979 11.4000 -34.2000 TD 30 1006 -1 17 273
1979241N11335 1979 78 NA NA FREDERIC 1979-08-30 09:00:00 TS 11.4498 -35.0925 main 1684 1670 P_____________ AL111979 11.4498 -35.0925 TD 32 1005 -1 18 273
1979241N11335 1979 78 NA NA FREDERIC 1979-08-30 12:00:00 TS 11.5000 -36.0000 35 1005 hurdat_atl main 1667 1647 O_____________ hurdat_atl AL111979 11.5000 -36.0000 TS 35 1005 0 18 273
1979241N11335 1979 78 NA NA FREDERIC 1979-08-30 15:00:00 TS 11.5497 -36.8925 main 1645 1641 P_____________ AL111979 11.5497 -36.8925 TS 37 1004 0 18 273
1979241N11335 1979 78 NA NA FREDERIC 1979-08-30 18:00:00 TS 11.6000 -37.8000 40 1003 hurdat_atl main 1639 1610 O_____________ hurdat_atl AL111979 11.6000 -37.8000 TS 40 1003 0 18 273
1979241N11335 1979 78 NA NA FREDERIC 1979-08-30 21:00:00 TS 11.6498 -38.7425 main 1610 1532 P_____________ AL111979 11.6498 -38.7425 TS 42 1001 0 19 273
1979241N11335 1979 78 NA NA FREDERIC 1979-08-31 00:00:00 TS 11.7000 -39.7000 45 1000 hurdat_atl main 1522 1440 O_____________ hurdat_atl AL111979 11.7000 -39.7000 TS 45 1000 0 19 273
1979241N11335 1979 78 NA NA FREDERIC 1979-08-31 03:00:00 TS 11.7497 -40.6500 main 1431 1367 P_____________ AL111979 11.7497 -40.6500 TS 47 998 0 19 273
1979241N11335 1979 78 NA NA FREDERIC 1979-08-31 06:00:00 TS 11.8000 -41.6000 50 997 hurdat_atl main 1358 1282 O_____________ hurdat_atl AL111979 11.8000 -41.6000 TS 50 997 0 19 273
1979241N11335 1979 78 NA NA FREDERIC 1979-08-31 09:00:00 TS 11.8499 -42.5725 main 1274 1209 P_____________ AL111979 11.8499 -42.5725 TS 52 995 0 19 273
1979241N11335 1979 78 NA NA FREDERIC 1979-08-31 12:00:00 TS 11.9000 -43.5000 55 994 hurdat_atl main 1209 1148 O_____________ hurdat_atl AL111979 11.9000 -43.5000 TS 55 994 0 17 272
1979241N11335 1979 78 NA NA FREDERIC 1979-08-31 15:00:00 TS 11.9194 -44.3004 main 1148 1099 P_____________ AL111979 11.9194 -44.3004 TS 55 992 0 16 274
1979241N11335 1979 78 NA NA FREDERIC 1979-08-31 18:00:00 TS 12.0000 -45.1000 55 991 hurdat_atl main 1099 1059 O_____________ hurdat_atl AL111979 12.0000 -45.1000 TS 55 991 0 17 280
1979241N11335 1979 78 NA NA FREDERIC 1979-08-31 21:00:00 TS 12.2275 -46.0422 main 1059 1028 P_____________ AL111979 12.2275 -46.0422 TS 57 989 0 19 285
1979241N11335 1979 78 NA NA FREDERIC 1979-09-01 00:00:00 TS 12.5000 -47.0000 60 988 hurdat_atl main 1023 991 O_____________ hurdat_atl AL111979 12.5000 -47.0000 TS 60 988 0 18 285
1979241N11335 1979 78 NA NA FREDERIC 1979-09-01 03:00:00 TS 12.7071 -47.8652 main 986 963 P_____________ AL111979 12.7071 -47.8652 TS 62 987 0 17 284
1979241N11335 1979 78 NA NA FREDERIC 1979-09-01 06:00:00 TS 12.9000 -48.7000 65 987 hurdat_atl main 963 944 O_____________ hurdat_atl AL111979 12.9000 -48.7000 HU 65 987 1 17 283
1979241N11335 1979 78 NA NA FREDERIC 1979-09-01 09:00:00 TS 13.0921 -49.5353 main 945 927 P_____________ AL111979 13.0921 -49.5353 HU 65 987 1 17 284
1979241N11335 1979 78 NA NA FREDERIC 1979-09-01 12:00:00 TS 13.3000 -50.4000 65 988 hurdat_atl main 927 908 O_____________ hurdat_atl AL111979 13.3000 -50.4000 HU 65 988 1 18 284
1979241N11335 1979 78 NA NA FREDERIC 1979-09-01 15:00:00 TS 13.5424 -51.3426 main 908 903 P_____________ AL111979 13.5424 -51.3426 HU 65 989 1 19 285
1979241N11335 1979 78 NA NA FREDERIC 1979-09-01 18:00:00 TS 13.8000 -52.3000 65 990 hurdat_atl main 909 904 O_____________ hurdat_atl AL111979 13.8000 -52.3000 HU 65 990 1 19 285
1979241N11335 1979 78 NA NA FREDERIC 1979-09-01 21:00:00 TS 14.0424 -53.2377 main 913 850 P_____________ AL111979 14.0424 -53.2377 HU 62 991 0 18 286
1979241N11335 1979 78 NA NA FREDERIC 1979-09-02 00:00:00 TS 14.3000 -54.1000 60 992 hurdat_atl main 850 802 O_____________ hurdat_atl AL111979 14.3000 -54.1000 TS 60 992 0 16 290
1979241N11335 1979 78 NA NA FREDERIC 1979-09-02 03:00:00 TS 14.5918 -54.8078 main 802 759 P_____________ AL111979 14.5918 -54.8078 TS 60 993 0 15 294
1979241N11335 1979 78 NA NA FREDERIC 1979-09-02 06:00:00 TS 14.9000 -55.5000 60 994 hurdat_atl main 759 716 O_____________ hurdat_atl AL111979 14.9000 -55.5000 TS 60 994 0 16 292
1979241N11335 1979 78 NA NA FREDERIC 1979-09-02 09:00:00 TS 15.1850 -56.3353 main 716 674 P_____________ AL111979 15.1850 -56.3353 TS 60 995 0 18 290
1979241N11335 1979 78 NA NA FREDERIC 1979-09-02 12:00:00 TS 15.5000 -57.2000 60 996 hurdat_atl main 676 662 O_____________ hurdat_atl AL111979 15.5000 -57.2000 TS 60 996 0 18 294
1979241N11335 1979 78 NA NA FREDERIC 1979-09-02 15:00:00 TS 15.9150 -58.0521 main 661 661 P_____________ AL111979 15.9150 -58.0521 TS 57 997 0 17 297
1979241N11335 1979 78 NA NA FREDERIC 1979-09-02 18:00:00 TS 16.3000 -58.8000 55 999 hurdat_atl main 670 666 O_____________ hurdat_atl AL111979 16.3000 -58.8000 TS 55 999 0 14 296
1979241N11335 1979 78 NA NA FREDERIC 1979-09-02 21:00:00 TS 16.5295 -59.3455 main 674 637 P_____________ AL111979 16.5295 -59.3455 TS 55 1000 0 10 293
1979241N11335 1979 78 NA NA FREDERIC 1979-09-03 00:00:00 TS 16.7000 -59.8000 55 1002 hurdat_atl main 637 580 O_____________ hurdat_atl AL111979 16.7000 -59.8000 TS 55 1002 0 10 292
1979241N11335 1979 78 NA NA FREDERIC 1979-09-03 03:00:00 TS 16.8999 -60.3001 main 580 523 P_____________ AL111979 16.8999 -60.3001 TS 55 1001 0 10 293
1979241N11335 1979 78 NA CS FREDERIC 1979-09-03 06:00:00 TS 17.1000 -60.8000 55 1000 hurdat_atl main 523 466 O_____________ hurdat_atl AL111979 17.1000 -60.8000 TS 55 1000 0 10 293
1979241N11335 1979 78 NA CS FREDERIC 1979-09-03 09:00:00 TS 17.3074 -61.3000 main 466 409 P_____________ AL111979 17.3074 -61.3000 TS 52 999 0 10 293
1979241N11335 1979 78 NA CS FREDERIC 1979-09-03 12:00:00 TS 17.5000 -61.8000 50 999 hurdat_atl main 409 353 O_____________ hurdat_atl AL111979 17.5000 -61.8000 TS 50 999 0 10 291
1979241N11335 1979 78 NA CS FREDERIC 1979-09-03 15:00:00 TS 17.6649 -62.3001 main 353 299 P_____________ AL111979 17.6649 -62.3001 TS 50 999 0 10 287
1979241N11335 1979 78 NA CS FREDERIC 1979-09-03 18:00:00 TS 17.8000 -62.8000 50 1000 hurdat_atl main 299 245 O_____________ hurdat_atl AL111979 17.8000 -62.8000 TS 50 1000 0 10 285
1979241N11335 1979 78 NA CS FREDERIC 1979-09-03 21:00:00 TS 17.9149 -63.3000 main 245 191 P_____________ AL111979 17.9149 -63.3000 TS 50 1001 0 10 282
1979241N11335 1979 78 NA CS FREDERIC 1979-09-04 00:00:00 TS 18.0000 -63.8000 50 1002 hurdat_atl main 191 137 O_____________ hurdat_atl AL111979 18.0000 -63.8000 TS 50 1002 0 10 279
1979241N11335 1979 78 NA CS FREDERIC 1979-09-04 03:00:00 TS 18.0649 -64.3000 main 137 85 P_____________ AL111979 18.0649 -64.3000 TS 47 1002 0 10 276
1979241N11335 1979 78 NA CS FREDERIC 1979-09-04 06:00:00 TS 18.1000 -64.8000 45 1003 hurdat_atl main 85 33 O_____________ hurdat_atl AL111979 18.1000 -64.8000 TS 45 1003 0 10 273
1979241N11335 1979 78 NA CS FREDERIC 1979-09-04 09:00:00 TS 18.1074 -65.3001 main 33 0 P_____________ AL111979 18.1074 -65.3001 TS 45 1003 0 10 270
1979241N11335 1979 78 NA CS FREDERIC 1979-09-04 12:00:00 TS 18.1000 -65.8000 45 1004 hurdat_atl main 0 0 O_____________ hurdat_atl AL111979 18.1000 -65.8000 TS 45 1004 0 10 270
1979241N11335 1979 78 NA NA FREDERIC 1979-09-04 15:00:00 TS 18.1074 -66.2999 main 0 0 P_____________ AL111979 18.1074 -66.2999 TS 45 1004 0 10 270
1979241N11335 1979 78 NA NA FREDERIC 1979-09-04 18:00:00 TS 18.1000 -66.8000 45 1005 hurdat_atl main 0 0 O_____________ hurdat_atl AL111979 18.1000 -66.8000 TS 45 1005 0 10 269
1979241N11335 1979 78 NA CS FREDERIC 1979-09-04 21:00:00 TS 18.0874 -67.3073 main 10 10 P_____________ AL111979 18.0874 -67.3073 TS 45 1005 0 10 264
1979241N11335 1979 78 NA CS FREDERIC 1979-09-05 00:00:00 TS 18.0000 -67.8000 45 1006 hurdat_atl main 63 54 O_____________ hurdat_atl AL111979 18.0000 -67.8000 TS 45 1006 0 10 250
1979241N11335 1979 78 NA CS FREDERIC 1979-09-05 03:00:00 TS 17.7500 -68.2879 main 54 54 P_____________ AL111979 17.7500 -68.2879 TS 45 1006 0 10 240
1979241N11335 1979 78 NA CS FREDERIC 1979-09-05 06:00:00 TS 17.5000 -68.7000 45 1007 hurdat_atl main 78 78 O_____________ hurdat_atl AL111979 17.5000 -68.7000 TS 45 1007 0 8 241
1979241N11335 1979 78 NA CS FREDERIC 1979-09-05 09:00:00 TS 17.3824 -68.9874 main 91 91 P_____________ AL111979 17.3824 -68.9874 TS 42 1007 0 5 258
1979241N11335 1979 78 NA CS FREDERIC 1979-09-05 12:00:00 TS 17.4000 -69.2000 40 1008 hurdat_atl main 99 94 O_____________ hurdat_atl AL111979 17.4000 -69.2000 TS 40 1008 0 4 291
1979241N11335 1979 78 NA CS FREDERIC 1979-09-05 15:00:00 TS 17.5400 -69.4150 main 100 67 P_____________ AL111979 17.5400 -69.4150 TS 40 1007 0 6 316
1979241N11335 1979 78 NA CS FREDERIC 1979-09-05 18:00:00 TS 17.8000 -69.6000 40 1007 hurdat_atl main 67 35 O_____________ hurdat_atl AL111979 17.8000 -69.6000 TS 40 1007 0 6 333
1979241N11335 1979 78 NA CS FREDERIC 1979-09-05 21:00:00 TS 18.1123 -69.7204 main 35 0 P_____________ AL111979 18.1123 -69.7204 TS 40 1006 0 8 338
1979241N11335 1979 78 NA CS FREDERIC 1979-09-06 00:00:00 TS 18.5000 -69.9000 40 1005 hurdat_atl main 0 0 O_____________ hurdat_atl AL111979 18.5000 -69.9000 TS 40 1005 0 10 330
1979241N11335 1979 78 NA NA FREDERIC 1979-09-06 03:00:00 TS 18.9649 -70.2398 main 0 0 P_____________ AL111979 18.9649 -70.2398 TS 37 1005 0 12 320
1979241N11335 1979 78 NA NA FREDERIC 1979-09-06 06:00:00 TS 19.4000 -70.7000 35 1005 hurdat_atl main 0 0 O_____________ hurdat_atl AL111979 19.4000 -70.7000 TS 35 1005 0 12 309
1979241N11335 1979 78 NA NA FREDERIC 1979-09-06 09:00:00 TS 19.7099 -71.2200 main 0 0 P_____________ AL111979 19.7099 -71.2200 TS 35 1005 0 12 296
1979241N11335 1979 78 NA NA FREDERIC 1979-09-06 12:00:00 TS 19.9000 -71.8000 35 1006 hurdat_atl main 11 11 O_____________ hurdat_atl AL111979 19.9000 -71.8000 TS 35 1006 0 11 284
1979241N11335 1979 78 NA NA FREDERIC 1979-09-06 15:00:00 TS 19.9796 -72.3704 main 22 11 P_____________ AL111979 19.9796 -72.3704 TS 32 1006 -1 11 275
1979241N11335 1979 78 NA NA FREDERIC 1979-09-06 18:00:00 TS 20.0000 -73.0000 30 1006 hurdat_atl main 11 11 O_____________ hurdat_atl AL111979 20.0000 -73.0000 TD 30 1006 -1 13 273
1979241N11335 1979 78 NA NA FREDERIC 1979-09-06 21:00:00 TS 20.0426 -73.7426 main 38 0 P_____________ AL111979 20.0426 -73.7426 TD 30 1006 -1 14 274
1979241N11335 1979 78 NA CS FREDERIC 1979-09-07 00:00:00 TS 20.1000 -74.5000 30 1006 hurdat_atl main 0 0 O_____________ hurdat_atl AL111979 20.1000 -74.5000 TD 30 1006 -1 14 276
1979241N11335 1979 78 NA NA FREDERIC 1979-09-07 03:00:00 TS 20.1847 -75.1726 main 0 0 P_____________ AL111979 20.1847 -75.1726 TD 27 1006 -1 12 279
1979241N11335 1979 78 NA NA FREDERIC 1979-09-07 06:00:00 TS 20.3000 -75.8000 25 1006 hurdat_atl main 0 0 O_____________ hurdat_atl AL111979 20.3000 -75.8000 TD 25 1006 -1 12 282
1979241N11335 1979 78 NA NA FREDERIC 1979-09-07 09:00:00 TS 20.4424 -76.4225 main 0 0 P_____________ AL111979 20.4424 -76.4225 TD 25 1005 -1 12 285
1979241N11335 1979 78 NA NA FREDERIC 1979-09-07 12:00:00 TS 20.6000 -77.0000 25 1005 hurdat_atl main 0 0 O_____________ hurdat_atl AL111979 20.6000 -77.0000 TD 25 1005 -1 11 287
1979241N11335 1979 78 NA NA FREDERIC 1979-09-07 15:00:00 TS 20.7574 -77.5375 main 0 0 P_____________ AL111979 20.7574 -77.5375 TD 25 1004 -1 10 288
1979241N11335 1979 78 NA NA FREDERIC 1979-09-07 18:00:00 TS 20.9000 -78.0000 25 1004 hurdat_atl main 0 0 O_____________ hurdat_atl AL111979 20.9000 -78.0000 TD 25 1004 -1 8 288
1979241N11335 1979 78 NA CS FREDERIC 1979-09-07 21:00:00 TS 21.0073 -78.3801 main 0 0 P_____________ AL111979 21.0073 -78.3801 TD 27 1003 -1 7 287
1979241N11335 1979 78 NA CS FREDERIC 1979-09-08 00:00:00 TS 21.1000 -78.7000 30 1003 hurdat_atl main 20 20 O_____________ hurdat_atl AL111979 21.1000 -78.7000 TD 30 1003 -1 6 288
1979241N11335 1979 78 NA CS FREDERIC 1979-09-08 03:00:00 TS 21.1999 -79.0150 main 39 22 P_____________ AL111979 21.1999 -79.0150 TD 30 1003 -1 6 290
1979241N11335 1979 78 NA CS FREDERIC 1979-09-08 06:00:00 TS 21.3000 -79.3000 30 1003 hurdat_atl main 24 22 O_____________ hurdat_atl AL111979 21.3000 -79.3000 TD 30 1003 -1 5 293
1979241N11335 1979 78 NA CS FREDERIC 1979-09-08 09:00:00 TS 21.4074 -79.5425 main 22 15 P_____________ AL111979 21.4074 -79.5425 TD 30 1002 -1 5 293
1979241N11335 1979 78 NA CS FREDERIC 1979-09-08 12:00:00 TS 21.5000 -79.8000 30 1002 hurdat_atl main 22 15 O_____________ hurdat_atl AL111979 21.5000 -79.8000 TD 30 1002 -1 6 285
1979241N11335 1979 78 NA CS FREDERIC 1979-09-08 15:00:00 TS 21.5576 -80.1500 main 23 23 P_____________ AL111979 21.5576 -80.1500 TD 30 1002 -1 7 279
1979241N11335 1979 78 NA CS FREDERIC 1979-09-08 18:00:00 TS 21.6000 -80.5000 30 1002 hurdat_atl main 39 39 O_____________ hurdat_atl AL111979 21.6000 -80.5000 TD 30 1002 -1 6 279
1979241N11335 1979 78 NA CS FREDERIC 1979-09-08 21:00:00 TS 21.6499 -80.7650 main 55 39 P_____________ AL111979 21.6499 -80.7650 TD 32 1001 -1 5 282
1979241N11335 1979 78 NA CS FREDERIC 1979-09-09 00:00:00 TS 21.7000 -81.0000 35 1001 hurdat_atl main 39 33 O_____________ hurdat_atl AL111979 21.7000 -81.0000 TS 35 1001 0 5 283
1979241N11335 1979 78 NA CS FREDERIC 1979-09-09 03:00:00 TS 21.7500 -81.2500 main 35 24 P_____________ AL111979 21.7500 -81.2500 TS 37 1000 0 5 282
1979241N11335 1979 78 NA CS FREDERIC 1979-09-09 06:00:00 TS 21.8000 -81.5000 40 1000 hurdat_atl main 35 35 O_____________ hurdat_atl AL111979 21.8000 -81.5000 TS 40 1000 0 5 282
1979241N11335 1979 78 NA CS FREDERIC 1979-09-09 09:00:00 TS 21.8500 -81.7500 main 44 33 P_____________ AL111979 21.8500 -81.7500 TS 42 999 0 5 282
1979241N11335 1979 78 NA CS FREDERIC 1979-09-09 12:00:00 TS 21.9000 -82.0000 45 999 hurdat_atl main 39 39 O_____________ hurdat_atl AL111979 21.9000 -82.0000 TS 45 999 0 5 279
1979241N11335 1979 78 NA CS FREDERIC 1979-09-09 15:00:00 TS 21.9275 -82.2501 main 38 30 P_____________ AL111979 21.9275 -82.2501 TS 47 998 0 5 282
1979241N11335 1979 78 NA CS FREDERIC 1979-09-09 18:00:00 TS 22.0000 -82.5000 50 997 hurdat_atl main 30 24 O_____________ hurdat_atl AL111979 22.0000 -82.5000 TS 50 997 0 5 298
1979241N11335 1979 78 NA CS FREDERIC 1979-09-09 21:00:00 TS 22.1850 -82.7649 main 44 15 P_____________ AL111979 22.1850 -82.7649 TS 52 996 0 6 311
1979241N11335 1979 78 NA CS FREDERIC 1979-09-10 00:00:00 TS 22.4000 -83.0000 55 995 hurdat_atl main 15 0 O_____________ hurdat_atl AL111979 22.4000 -83.0000 TS 55 995 0 5 316
1979241N11335 1979 78 NA NA FREDERIC 1979-09-10 03:00:00 TS 22.5724 -83.1651 main 0 0 P_____________ AL111979 22.5724 -83.1651 TS 57 993 0 4 317
1979241N11335 1979 78 NA NA FREDERIC 1979-09-10 06:00:00 TS 22.7000 -83.3000 60 992 hurdat_atl main 0 0 O_____________ hurdat_atl AL111979 22.7000 -83.3000 TS 60 992 0 3 304
1979241N11335 1979 78 NA NA FREDERIC 1979-09-10 09:00:00 TS 22.7575 -83.4576 main 0 0 P_____________ AL111979 22.7575 -83.4576 TS 62 991 0 3 290
1979241N11335 1979 78 NA NA FREDERIC 1979-09-10 12:00:00 TS 22.8000 -83.6000 65 990 hurdat_atl main 0 0 O_____________ hurdat_atl AL111979 22.8000 -83.6000 HU 65 990 1 3 299
1979241N11335 1979 78 NA GM FREDERIC 1979-09-10 15:00:00 TS 22.8850 -83.7075 main 11 11 P_____________ AL111979 22.8850 -83.7075 HU 67 988 1 3 317
1979241N11335 1979 78 NA GM FREDERIC 1979-09-10 18:00:00 TS 23.0000 -83.8000 70 987 hurdat_atl main 24 24 O_____________ hurdat_atl AL111979 23.0000 -83.8000 HU 70 987 1 3 326
1979241N11335 1979 78 NA GM FREDERIC 1979-09-10 21:00:00 TS 23.1275 -83.8851 main 39 39 P_____________ AL111979 23.1275 -83.8851 HU 72 986 1 4 329
1979241N11335 1979 78 NA GM FREDERIC 1979-09-11 00:00:00 TS 23.3000 -84.0000 75 985 hurdat_atl main 63 63 O_____________ hurdat_atl AL111979 23.3000 -84.0000 HU 75 985 1 5 326
1979241N11335 1979 78 NA GM FREDERIC 1979-09-11 03:00:00 TS 23.5275 -84.1850 main 91 91 P_____________ AL111979 23.5275 -84.1850 HU 77 984 1 6 324
1979241N11335 1979 78 NA GM FREDERIC 1979-09-11 06:00:00 TS 23.8000 -84.4000 80 983 hurdat_atl main 129 129 O_____________ hurdat_atl AL111979 23.8000 -84.4000 HU 80 983 1 7 326
1979241N11335 1979 78 NA GM FREDERIC 1979-09-11 09:00:00 TS 24.0925 -84.6001 main 168 168 P_____________ AL111979 24.0925 -84.6001 HU 82 981 1 7 329
1979241N11335 1979 78 NA GM FREDERIC 1979-09-11 12:00:00 TS 24.4000 -84.8000 85 980 hurdat_atl main 206 206 O_____________ hurdat_atl AL111979 24.4000 -84.8000 HU 85 980 2 7 330
1979241N11335 1979 78 NA GM FREDERIC 1979-09-11 15:00:00 TS 24.6924 -84.9853 main 245 245 P_____________ AL111979 24.6924 -84.9853 HU 90 974 2 7 329
1979241N11335 1979 78 NA GM FREDERIC 1979-09-11 18:00:00 TS 25.0000 -85.2000 95 968 hurdat_atl main 284 284 O_____________ hurdat_atl AL111979 25.0000 -85.2000 HU 95 968 2 8 325
1979241N11335 1979 78 NA GM FREDERIC 1979-09-11 21:00:00 TS 25.3350 -85.4851 main 328 328 P_____________ AL111979 25.3350 -85.4851 HU 97 964 3 9 322
1979241N11335 1979 78 NA GM FREDERIC 1979-09-12 00:00:00 TS 25.7000 -85.8000 100 960 hurdat_atl main 364 363 O_____________ hurdat_atl AL111979 25.7000 -85.8000 HU 100 960 3 9 324
1979241N11335 1979 78 NA GM FREDERIC 1979-09-12 03:00:00 TS 26.0849 -86.1002 main 372 370 P_____________ AL111979 26.0849 -86.1002 HU 105 956 3 10 326
1979241N11335 1979 78 NA GM FREDERIC 1979-09-12 06:00:00 TS 26.5000 -86.4000 110 952 hurdat_atl main 370 332 O_____________ hurdat_atl AL111979 26.5000 -86.4000 HU 110 952 3 10 328
1979241N11335 1979 78 NA GM FREDERIC 1979-09-12 09:00:00 TS 26.9349 -86.6928 main 332 272 P_____________ AL111979 26.9349 -86.6928 HU 112 947 3 11 329
1979241N11335 1979 78 NA GM FREDERIC 1979-09-12 12:00:00 TS 27.4000 -87.0000 115 943 hurdat_atl main 272 213 O_____________ hurdat_atl AL111979 27.4000 -87.0000 HU 115 943 4 11 327
1979241N11335 1979 78 NA GM FREDERIC 1979-09-12 15:00:00 TS 27.8702 -87.3724 main 205 148 P_____________ AL111979 27.8702 -87.3724 HU 115 946 4 12 328
1979241N11335 1979 78 NA GM FREDERIC 1979-09-12 18:00:00 TS 28.4000 -87.7000 115 950 hurdat_atl main 148 107 O_____________ hurdat_atl AL111979 28.4000 -87.7000 HU 115 950 4 13 340
1979241N11335 1979 78 NA GM FREDERIC 1979-09-12 21:00:00 TS 29.0423 -87.8657 main 107 55 P_____________ AL111979 29.0423 -87.8657 HU 115 948 4 13 349
1979241N11335 1979 78 NA GM FREDERIC 1979-09-13 00:00:00 TS 29.7000 -88.0000 115 946 hurdat_atl main 55 14 O_____________ hurdat_atl AL111979 29.7000 -88.0000 HU 115 946 4 13 344
1979241N11335 1979 78 NA GM FREDERIC 1979-09-13 03:00:00 TS 30.2426 -88.2573 main 22 0 P_____________ AL111979 30.2426 -88.2573 HU 105 950 3 12 339
1979241N11335 1979 78 NA NA FREDERIC 1979-09-13 06:00:00 TS 30.8000 -88.5000 95 955 hurdat_atl main 0 0 O_____________ hurdat_atl AL111979 30.8000 -88.5000 HU 95 955 2 13 343
1979241N11335 1979 78 NA NA FREDERIC 1979-09-13 09:00:00 TS 31.4473 -88.6887 main 0 0 P_____________ AL111979 31.4473 -88.6887 HU 80 965 1 14 353
1979241N11335 1979 78 NA NA FREDERIC 1979-09-13 12:00:00 TS 32.2000 -88.7000 65 975 hurdat_atl main 0 0 O_____________ hurdat_atl AL111979 32.2000 -88.7000 HU 65 975 1 17 7
1979241N11335 1979 78 NA NA FREDERIC 1979-09-13 15:00:00 TS 33.1150 -88.4414 main 0 0 P_____________ AL111979 33.1150 -88.4414 HU 55 980 0 19 18
1979241N11335 1979 78 NA NA FREDERIC 1979-09-13 18:00:00 TS 34.0000 -88.0000 45 985 hurdat_atl main 0 0 O_____________ hurdat_atl AL111979 34.0000 -88.0000 TS 45 985 0 16 24
1979241N11335 1979 78 NA NA FREDERIC 1979-09-13 21:00:00 TS 34.5980 -87.6298 main 0 0 P_____________ AL111979 34.5980 -87.6298 TS 42 987 0 15 34
1979241N11335 1979 78 NA NA FREDERIC 1979-09-14 00:00:00 TS 35.2000 -87.0000 40 990 hurdat_atl main 0 0 O_____________ hurdat_atl AL111979 35.2000 -87.0000 TS 40 990 0 20 45
1979241N11335 1979 78 NA NA FREDERIC 1979-09-14 03:00:00 TS 36.0016 -85.9330 main 0 0 P_____________ AL111979 36.0016 -85.9330 TS 37 993 0 27 48
1979241N11335 1979 78 NA NA FREDERIC 1979-09-14 06:00:00 TS 37.0000 -84.5000 35 996 hurdat_atl main 0 0 O_____________ hurdat_atl AL111979 37.0000 -84.5000 TS 35 996 0 32 48
1979241N11335 1979 78 NA NA FREDERIC 1979-09-14 09:00:00 TS 38.1554 -82.9272 main 0 0 P_____________ AL111979 38.1554 -82.9272 TS 35 996 0 37 48
1979241N11335 1979 78 NA NA FREDERIC 1979-09-14 12:00:00 TS 39.5000 -81.0000 35 997 hurdat_atl main 0 0 O_____________ hurdat_atl AL111979 39.5000 -81.0000 TS 35 997 0 41 51
1979241N11335 1979 78 NA NA FREDERIC 1979-09-14 15:00:00 TS 40.7628 -78.7833 main 0 0 P_____________ AL111979 40.7628 -78.7833 TS 32 997 -1 48 52
1979241N11335 1979 78 NA NA FREDERIC 1979-09-14 18:00:00 ET 42.5000 -76.0000 30 998 hurdat_atl main 0 0 O_____________ hurdat_atl AL111979 42.5000 -76.0000 EX 30 998 -4 64 48
1979241N11335 1979 78 NA NA FREDERIC 1979-09-14 21:00:00 ET 45.0522 -72.3920 main 0 0 P_____________ AL111979 45.0522 -72.3920 EX 30 993 -4 79 46
1979241N11335 1979 78 NA NA FREDERIC 1979-09-15 00:00:00 ET 48.0000 -68.0000 30 988 hurdat_atl main 0 O_____________ hurdat_atl AL111979 48.0000 -68.0000 EX 30 988 -4 84 45

About IBTrACS Database

This database is a web-friendly format of International Best Track Archive for Climate Stewardship (IBTrACS), a global best track data archive curated by NOAA dating back to 1842.

Updated: 2021-11-26